createdAt,value
2017-08-11T00:00:43.611Z,16.8
2017-08-11T00:01:42.674Z,16.8
2017-08-11T00:02:41.865Z,16.8
2017-08-11T00:03:41.565Z,16.8
2017-08-11T00:04:40.628Z,16.8
2017-08-11T00:05:39.812Z,16.7
2017-08-11T00:06:38.985Z,16.7
2017-08-11T00:07:38.548Z,16.7
2017-08-11T00:08:37.733Z,16.7
2017-08-11T00:09:36.962Z,16.7
2017-08-11T00:10:36.656Z,16.7
2017-08-11T00:11:35.728Z,16.7
2017-08-11T00:12:34.792Z,16.7
2017-08-11T00:13:34.483Z,16.7
2017-08-11T00:15:33.054Z,16.7
2017-08-11T00:16:32.252Z,16.7
2017-08-11T00:17:31.447Z,16.7
2017-08-11T00:18:30.628Z,16.7
2017-08-11T00:19:30.203Z,16.7
2017-08-11T00:20:29.381Z,16.7
2017-08-11T00:21:28.866Z,16.7
2017-08-11T00:22:27.810Z,16.7
2017-08-11T00:23:27.162Z,16.7
2017-08-11T00:24:26.845Z,16.7
2017-08-11T00:25:25.794Z,16.6
2017-08-11T00:26:25.480Z,16.6
2017-08-11T00:27:24.422Z,16.7
2017-08-11T00:28:23.599Z,16.7
2017-08-11T00:30:22.668Z,16.6
2017-08-11T00:31:21.725Z,16.6
2017-08-11T00:33:20.306Z,16.6
2017-08-11T00:34:19.491Z,16.7
2017-08-11T00:35:19.181Z,16.7
2017-08-11T00:36:18.372Z,16.8
2017-08-11T00:38:16.955Z,16.7
2017-08-11T00:39:16.132Z,16.7
2017-08-11T00:40:15.322Z,16.7
2017-08-11T00:41:14.036Z,16.7
2017-08-11T00:42:14.224Z,16.7
2017-08-11T00:43:13.440Z,16.7
2017-08-11T00:44:12.634Z,16.7
2017-08-11T00:45:11.701Z,16.7
2017-08-11T00:46:11.266Z,16.7
2017-08-11T00:47:10.457Z,16.7
2017-08-11T00:48:09.643Z,16.7
2017-08-11T00:48:40.143Z,16.7
2017-08-11T00:49:10.519Z,16.8
2017-08-11T00:49:41.022Z,16.8
2017-08-11T00:51:07.886Z,16.8
2017-08-11T00:52:06.952Z,16.7
2017-08-11T00:53:06.530Z,16.8
2017-08-11T00:54:05.718Z,16.8
2017-08-11T00:55:04.787Z,16.8
2017-08-11T00:56:04.354Z,16.8
2017-08-11T00:57:03.444Z,16.8
2017-08-11T00:58:02.624Z,16.8
2017-08-11T00:59:02.300Z,16.8
2017-08-11T00:59:32.449Z,16.8
2017-08-11T01:00:02.946Z,16.8
2017-08-11T01:00:33.087Z,16.8
2017-08-11T01:01:59.842Z,16.8
2017-08-11T01:02:59.533Z,16.8
2017-08-11T01:03:58.500Z,16.8
2017-08-11T01:04:58.189Z,16.8
2017-08-11T01:05:57.374Z,16.8
2017-08-11T01:06:56.576Z,16.8
2017-08-11T01:07:55.528Z,16.8
2017-08-11T01:08:54.981Z,16.8
2017-08-11T01:09:55.228Z,16.8
2017-08-11T01:10:53.908Z,16.8
2017-08-11T01:11:53.090Z,16.9
2017-08-11T01:12:52.258Z,16.8
2017-08-11T01:13:51.444Z,16.8
2017-08-11T01:14:51.187Z,16.9
2017-08-11T01:15:50.372Z,16.9
2017-08-11T01:16:49.574Z,16.9
2017-08-11T01:17:48.667Z,16.8
2017-08-11T01:18:19.040Z,16.8
2017-08-11T01:18:49.404Z,16.9
2017-08-11T01:19:19.776Z,16.9
2017-08-11T01:19:50.326Z,16.8
2017-08-11T01:20:46.885Z,16.8
2017-08-11T01:21:46.060Z,16.8
2017-08-11T01:22:45.255Z,16.8
2017-08-11T01:23:44.948Z,16.9
2017-08-11T01:24:44.143Z,16.9
2017-08-11T01:25:43.214Z,16.9
2017-08-11T01:26:42.298Z,16.9
2017-08-11T01:27:41.994Z,16.9
2017-08-11T01:28:41.177Z,16.9
2017-08-11T01:29:40.363Z,16.9
2017-08-11T01:30:40.040Z,16.9
2017-08-11T01:31:39.226Z,16.8
2017-08-11T01:32:38.166Z,16.8
2017-08-11T01:33:37.740Z,16.8
2017-08-11T01:34:36.936Z,16.8
2017-08-11T01:35:36.002Z,16.8
2017-08-11T01:36:35.573Z,16.8
2017-08-11T01:37:34.509Z,16.8
2017-08-11T01:38:33.956Z,16.8
2017-08-11T01:39:33.482Z,16.8
2017-08-11T01:40:03.734Z,16.8
2017-08-11T01:40:34.238Z,16.8
2017-08-11T01:41:04.601Z,16.8
2017-08-11T01:41:35.098Z,16.8
2017-08-11T01:42:05.475Z,16.8
2017-08-11T01:43:30.710Z,16.8
2017-08-11T01:44:30.290Z,16.8
2017-08-11T01:45:29.465Z,16.8
2017-08-11T01:46:28.651Z,16.8
2017-08-11T01:47:27.846Z,16.7
2017-08-11T01:48:27.541Z,16.7
2017-08-11T01:49:26.732Z,16.7
2017-08-11T01:51:25.188Z,16.7
2017-08-11T01:52:24.364Z,16.6
2017-08-11T01:53:23.924Z,16.6
2017-08-11T01:54:23.102Z,16.7
2017-08-11T01:55:22.284Z,16.7
2017-08-11T01:56:21.854Z,16.7
2017-08-11T01:57:21.036Z,16.7
2017-08-11T01:58:20.216Z,16.7
2017-08-11T01:59:19.439Z,16.7
2017-08-11T02:00:19.117Z,16.7
2017-08-11T02:01:18.300Z,16.7
2017-08-11T02:02:17.364Z,16.7
2017-08-11T02:03:17.060Z,16.7
2017-08-11T02:04:16.255Z,16.7
2017-08-11T02:05:15.433Z,16.8
2017-08-11T02:06:14.609Z,16.8
2017-08-11T02:07:14.172Z,16.8
2017-08-11T02:08:13.371Z,16.8
2017-08-11T02:09:12.556Z,16.8
2017-08-11T02:10:12.011Z,16.8
2017-08-11T02:11:11.192Z,16.8
2017-08-11T02:11:41.697Z,16.8
2017-08-11T02:12:12.183Z,16.8
2017-08-11T02:14:09.135Z,16.9
2017-08-11T02:15:08.198Z,16.8
2017-08-11T02:16:07.757Z,16.8
2017-08-11T02:17:06.824Z,16.9
2017-08-11T02:18:06.388Z,16.8
2017-08-11T02:19:05.226Z,16.8
2017-08-11T02:20:04.919Z,16.8
2017-08-11T02:21:04.390Z,16.9
2017-08-11T02:22:03.460Z,16.8
2017-08-11T02:23:03.156Z,16.9
2017-08-11T02:24:02.363Z,16.8
2017-08-11T02:25:01.334Z,16.8
2017-08-11T02:26:00.906Z,16.8
2017-08-11T02:27:00.101Z,16.8
2017-08-11T02:27:59.346Z,16.8
2017-08-11T02:28:58.538Z,16.8
2017-08-11T02:29:58.239Z,16.8
2017-08-11T02:30:57.468Z,16.8
2017-08-11T02:31:56.569Z,16.7
2017-08-11T02:32:56.024Z,16.7
2017-08-11T02:33:55.219Z,16.7
2017-08-11T02:34:54.303Z,16.7
2017-08-11T02:35:53.881Z,16.7
2017-08-11T02:36:53.083Z,16.6
2017-08-11T02:37:23.473Z,16.6
2017-08-11T02:38:51.883Z,16.5
2017-08-11T02:39:50.959Z,16.5
2017-08-11T02:40:50.150Z,16.5
2017-08-11T02:41:49.605Z,16.6
2017-08-11T02:42:48.804Z,16.6
2017-08-11T02:43:48.385Z,16.5
2017-08-11T02:44:47.233Z,16.5
2017-08-11T02:45:46.941Z,16.5
2017-08-11T02:46:46.022Z,16.4
2017-08-11T02:47:45.223Z,16.5
2017-08-11T02:48:15.741Z,16.5
2017-08-11T02:48:46.825Z,16.3
2017-08-11T02:49:16.827Z,16.3
2017-08-11T02:49:47.230Z,16.3
2017-08-11T02:50:43.404Z,16.3
2017-08-11T02:51:42.480Z,16.2
2017-08-11T02:52:41.748Z,16.3
2017-08-11T02:53:40.958Z,16.3
2017-08-11T02:54:40.687Z,16.1
2017-08-11T02:55:39.631Z,16.1
2017-08-11T02:56:39.203Z,16.1
2017-08-11T02:57:38.406Z,16.1
2017-08-11T02:58:37.367Z,16.1
2017-08-11T02:59:36.937Z,16.1
2017-08-11T03:00:36.011Z,16.1
2017-08-11T03:01:35.580Z,16.1
2017-08-11T03:02:34.782Z,16.1
2017-08-11T03:03:33.864Z,16.2
2017-08-11T03:04:33.445Z,16.1
2017-08-11T03:05:32.645Z,16
2017-08-11T03:06:31.834Z,16
2017-08-11T03:07:02.346Z,16
2017-08-11T03:07:33.192Z,16
2017-08-11T03:08:03.191Z,16
2017-08-11T03:09:29.576Z,16.1
2017-08-11T03:10:29.034Z,16.1
2017-08-11T03:11:27.980Z,16
2017-08-11T03:12:27.440Z,16.1
2017-08-11T03:13:27.010Z,16.1
2017-08-11T03:14:25.982Z,16
2017-08-11T03:15:25.684Z,16
2017-08-11T03:16:24.742Z,16
2017-08-11T03:17:23.927Z,16
2017-08-11T03:18:23.508Z,16
2017-08-11T03:19:22.479Z,15.9
2017-08-11T03:20:21.550Z,15.9
2017-08-11T03:21:21.118Z,15.8
2017-08-11T03:22:20.325Z,15.8
2017-08-11T03:23:19.510Z,15.9
2017-08-11T03:24:19.209Z,15.8
2017-08-11T03:25:18.290Z,15.8
2017-08-11T03:26:17.493Z,15.8
2017-08-11T03:27:16.694Z,15.8
2017-08-11T03:28:15.887Z,15.7
2017-08-11T03:28:46.396Z,15.7
2017-08-11T03:29:16.906Z,15.7
2017-08-11T03:29:47.425Z,15.7
2017-08-11T03:30:17.952Z,15.7
2017-08-11T03:30:48.468Z,15.7
2017-08-11T03:32:13.353Z,15.7
2017-08-11T03:33:12.545Z,15.7
2017-08-11T03:34:11.759Z,15.6
2017-08-11T03:35:10.972Z,15.6
2017-08-11T03:36:10.188Z,15.7
2017-08-11T03:37:09.266Z,15.6
2017-08-11T03:38:08.967Z,15.6
2017-08-11T03:39:08.040Z,15.6
2017-08-11T03:40:07.227Z,15.6
2017-08-11T03:41:06.922Z,15.6
2017-08-11T03:43:04.881Z,15.7
2017-08-11T03:44:04.568Z,15.7
2017-08-11T03:45:03.522Z,15.8
2017-08-11T03:46:03.223Z,15.8
2017-08-11T03:47:02.424Z,15.8
2017-08-11T03:48:01.390Z,15.8
2017-08-11T03:48:32.284Z,15.8
2017-08-11T03:50:00.169Z,15.8
2017-08-11T03:50:59.228Z,15.8
2017-08-11T03:51:58.425Z,15.8
2017-08-11T03:52:58.116Z,15.8
2017-08-11T03:53:57.196Z,15.7
2017-08-11T03:54:56.389Z,15.8
2017-08-11T03:55:55.458Z,15.7
2017-08-11T03:56:54.912Z,15.8
2017-08-11T03:57:53.982Z,15.8
2017-08-11T03:58:24.495Z,15.8
2017-08-11T03:58:54.886Z,15.8
2017-08-11T03:59:25.152Z,15.8
2017-08-11T03:59:55.414Z,15.7
2017-08-11T04:00:26.192Z,15.7
2017-08-11T04:00:56.697Z,15.6
2017-08-11T04:01:27.098Z,15.6
2017-08-11T04:01:57.487Z,15.6
2017-08-11T04:02:50.520Z,15.6
2017-08-11T04:03:49.720Z,15.6
2017-08-11T04:04:48.923Z,15.7
2017-08-11T04:05:48.131Z,15.7
2017-08-11T04:06:47.847Z,15.7
2017-08-11T04:07:47.036Z,15.6
2017-08-11T04:08:46.239Z,15.6
2017-08-11T04:09:45.432Z,15.6
2017-08-11T04:10:44.263Z,15.6
2017-08-11T04:11:43.841Z,15.6
2017-08-11T04:12:43.052Z,15.6
2017-08-11T04:13:42.639Z,15.7
2017-08-11T04:14:41.714Z,15.6
2017-08-11T04:15:40.892Z,15.6
2017-08-11T04:16:40.077Z,15.6
2017-08-11T04:17:39.272Z,15.6
2017-08-11T04:18:38.972Z,15.6
2017-08-11T04:19:38.150Z,15.7
2017-08-11T04:20:37.339Z,15.6
2017-08-11T04:21:36.534Z,15.6
2017-08-11T04:22:35.613Z,15.6
2017-08-11T04:24:34.197Z,15.6
2017-08-11T04:25:33.386Z,15.6
2017-08-11T04:26:33.081Z,15.6
2017-08-11T04:27:32.028Z,15.6
2017-08-11T04:28:31.220Z,15.6
2017-08-11T04:29:30.414Z,15.6
2017-08-11T04:30:30.126Z,15.6
2017-08-11T04:31:29.203Z,15.6
2017-08-11T04:32:28.149Z,15.5
2017-08-11T04:33:27.487Z,15.6
2017-08-11T04:34:26.948Z,15.6
2017-08-11T04:35:26.034Z,15.5
2017-08-11T04:36:25.236Z,15.5
2017-08-11T04:37:24.310Z,15.5
2017-08-11T04:38:23.991Z,15.5
2017-08-11T04:39:23.183Z,15.5
2017-08-11T04:40:22.366Z,15.6
2017-08-11T04:41:21.578Z,15.6
2017-08-11T04:42:20.763Z,15.6
2017-08-11T04:43:20.467Z,15.7
2017-08-11T04:44:19.664Z,15.5
2017-08-11T04:45:18.866Z,15.5
2017-08-11T04:46:18.061Z,15.6
2017-08-11T04:47:17.127Z,15.6
2017-08-11T04:48:16.612Z,15.7
2017-08-11T04:50:15.072Z,15.6
2017-08-11T04:51:14.153Z,15.6
2017-08-11T04:52:13.630Z,15.6
2017-08-11T04:53:12.822Z,15.4
2017-08-11T04:54:11.777Z,15.5
2017-08-11T04:54:42.164Z,15.5
2017-08-11T04:55:12.669Z,15.5
2017-08-11T04:55:43.053Z,15.5
2017-08-11T04:56:13.441Z,15.6
2017-08-11T04:56:43.955Z,15.6
2017-08-11T04:58:08.727Z,15.6
2017-08-11T04:59:08.312Z,15.6
2017-08-11T05:00:07.395Z,15.6
2017-08-11T05:01:06.857Z,15.5
2017-08-11T05:02:05.838Z,15.5
2017-08-11T05:03:05.535Z,15.5
2017-08-11T05:05:04.009Z,15.4
2017-08-11T05:06:03.098Z,15.5
2017-08-11T05:07:02.078Z,15.4
2017-08-11T05:08:01.782Z,15.5
2017-08-11T05:08:32.291Z,15.5
2017-08-11T05:10:00.053Z,15.5
2017-08-11T05:10:59.255Z,15.5
2017-08-11T05:11:58.223Z,15.5
2017-08-11T05:12:57.920Z,15.5
2017-08-11T05:13:57.115Z,15.5
2017-08-11T05:14:56.310Z,15.5
2017-08-11T05:15:55.509Z,15.5
2017-08-11T05:16:54.717Z,15.5
2017-08-11T05:17:25.222Z,15.5
2017-08-11T05:17:55.736Z,15.5
2017-08-11T05:18:53.430Z,15.5
2017-08-11T05:19:52.633Z,15.5
2017-08-11T05:20:51.826Z,15.5
2017-08-11T05:21:51.022Z,15.5
2017-08-11T05:22:50.094Z,15.5
2017-08-11T05:24:48.675Z,15.6
2017-08-11T05:25:48.128Z,15.6
2017-08-11T05:26:47.204Z,15.6
2017-08-11T05:27:46.163Z,15.5
2017-08-11T05:28:45.742Z,15.5
2017-08-11T05:29:44.933Z,15.5
2017-08-11T05:30:44.150Z,15.5
2017-08-11T05:31:43.114Z,15.5
2017-08-11T05:32:42.459Z,15.4
2017-08-11T05:33:42.024Z,15.4
2017-08-11T05:34:41.222Z,15.4
2017-08-11T05:35:11.729Z,15.4
2017-08-11T05:35:42.239Z,15.4
2017-08-11T05:36:39.940Z,15.3
2017-08-11T05:37:39.157Z,15.3
2017-08-11T05:38:38.354Z,15.3
2017-08-11T05:39:37.544Z,15.4
2017-08-11T05:40:36.629Z,15.3
2017-08-11T05:41:36.220Z,15.4
2017-08-11T05:42:35.297Z,15.5
2017-08-11T05:43:34.488Z,15.3
2017-08-11T05:44:33.831Z,15.3
2017-08-11T05:45:32.906Z,15.4
2017-08-11T05:46:03.490Z,15.4
2017-08-11T05:46:34.005Z,15.4
2017-08-11T05:47:04.517Z,15.4
2017-08-11T05:47:35.043Z,15.5
2017-08-11T05:48:05.315Z,15.5
2017-08-11T05:49:30.064Z,15.5
2017-08-11T05:50:29.083Z,15.5
2017-08-11T05:51:28.667Z,15.5
2017-08-11T05:52:27.738Z,15.5
2017-08-11T05:53:26.935Z,15.5
2017-08-11T05:54:26.121Z,15.5
2017-08-11T05:55:25.698Z,15.5
2017-08-11T05:56:24.776Z,15.6
2017-08-11T05:57:23.861Z,15.5
2017-08-11T05:58:23.576Z,15.5
2017-08-11T05:59:22.645Z,15.6
2017-08-11T06:00:21.848Z,15.5
2017-08-11T06:01:21.046Z,15.5
2017-08-11T06:02:20.136Z,15.6
2017-08-11T06:03:19.859Z,15.5
2017-08-11T06:04:19.057Z,15.5
2017-08-11T06:05:18.245Z,15.6
2017-08-11T06:06:17.439Z,15.6
2017-08-11T06:07:16.517Z,15.6
2017-08-11T06:08:15.701Z,15.6
2017-08-11T06:09:14.896Z,15.6
2017-08-11T06:10:14.582Z,15.6
2017-08-11T06:11:13.573Z,15.6
2017-08-11T06:12:12.647Z,15.5
2017-08-11T06:13:12.225Z,15.5
2017-08-11T06:14:11.181Z,15.5
2017-08-11T06:15:10.275Z,15.5
2017-08-11T06:16:09.967Z,15.5
2017-08-11T06:17:09.043Z,15.6
2017-08-11T06:18:08.117Z,15.6
2017-08-11T06:19:07.810Z,15.6
2017-08-11T06:20:06.886Z,15.5
2017-08-11T06:21:05.973Z,15.6
2017-08-11T06:22:05.161Z,15.6
2017-08-11T06:23:04.745Z,15.6
2017-08-11T06:24:03.941Z,15.5
2017-08-11T06:25:03.032Z,15.5
2017-08-11T06:26:02.112Z,15.5
2017-08-11T06:27:01.578Z,15.6
2017-08-11T06:28:00.654Z,15.6
2017-08-11T06:29:00.362Z,15.6
2017-08-11T06:29:59.559Z,15.5
2017-08-11T06:30:59.059Z,15.5
2017-08-11T06:32:57.154Z,15.6
2017-08-11T06:33:56.352Z,15.6
2017-08-11T06:34:55.571Z,15.6
2017-08-11T06:35:54.775Z,15.6
2017-08-11T06:36:53.979Z,15.6
2017-08-11T06:37:53.174Z,15.5
2017-08-11T06:38:52.755Z,15.5
2017-08-11T06:39:51.954Z,15.5
2017-08-11T06:40:51.037Z,15.6
2017-08-11T06:41:50.230Z,15.6
2017-08-11T06:42:20.613Z,15.6
2017-08-11T06:42:51.002Z,15.6
2017-08-11T06:43:21.389Z,15.6
2017-08-11T06:43:51.652Z,15.6
2017-08-11T06:44:22.044Z,15.6
2017-08-11T06:44:52.320Z,15.6
2017-08-11T06:45:22.723Z,15.6
2017-08-11T06:46:46.473Z,15.6
2017-08-11T06:47:45.926Z,15.6
2017-08-11T06:48:45.119Z,15.6
2017-08-11T06:49:44.695Z,15.6
2017-08-11T06:50:43.757Z,15.6
2017-08-11T06:51:42.953Z,15.5
2017-08-11T06:52:42.147Z,15.6
2017-08-11T06:53:41.346Z,15.6
2017-08-11T06:54:11.851Z,15.6
2017-08-11T06:54:42.361Z,15.6
2017-08-11T06:55:12.750Z,15.6
2017-08-11T06:55:43.137Z,15.6
2017-08-11T06:56:39.178Z,15.6
2017-08-11T06:57:38.242Z,15.7
2017-08-11T06:58:37.931Z,15.6
2017-08-11T06:59:37.127Z,15.6
2017-08-11T07:00:36.322Z,15.7
2017-08-11T07:01:35.523Z,15.8
2017-08-11T07:02:34.708Z,15.8
2017-08-11T07:03:33.771Z,15.8
2017-08-11T07:04:34.045Z,15.8
2017-08-11T07:05:32.612Z,15.8
2017-08-11T07:06:31.588Z,15.8
2017-08-11T07:07:31.153Z,16
2017-08-11T07:08:30.347Z,16
2017-08-11T07:09:29.541Z,16
2017-08-11T07:10:28.617Z,16
2017-08-11T07:11:27.582Z,16
2017-08-11T07:11:58.101Z,16
2017-08-11T07:12:28.492Z,16
2017-08-11T07:12:58.887Z,16
2017-08-11T07:14:25.763Z,15.9
2017-08-11T07:15:24.849Z,16
2017-08-11T07:16:24.422Z,16
2017-08-11T07:17:23.507Z,16
2017-08-11T07:18:22.978Z,16.1
2017-08-11T07:19:22.044Z,16.1
2017-08-11T07:20:20.995Z,16.1
2017-08-11T07:21:20.683Z,16.1
2017-08-11T07:22:19.873Z,16.3
2017-08-11T07:23:18.949Z,16.4
2017-08-11T07:24:18.035Z,16.5
2017-08-11T07:25:17.686Z,16.5
2017-08-11T07:27:16.206Z,16.6
2017-08-11T07:28:15.271Z,16.6
2017-08-11T07:29:14.460Z,16.6
2017-08-11T07:30:14.159Z,16.6
2017-08-11T07:31:13.245Z,16.6
2017-08-11T07:32:12.440Z,16.6
2017-08-11T07:33:11.636Z,16.6
2017-08-11T07:34:10.834Z,16.6
2017-08-11T07:34:41.348Z,16.6
2017-08-11T07:35:11.854Z,16.6
2017-08-11T07:35:42.358Z,16.6
2017-08-11T07:37:08.608Z,16.6
2017-08-11T07:38:08.189Z,16.6
2017-08-11T07:39:07.391Z,16.6
2017-08-11T07:40:06.476Z,16.6
2017-08-11T07:41:05.661Z,16.6
2017-08-11T07:42:04.859Z,16.6
2017-08-11T07:43:04.446Z,16.5
2017-08-11T07:44:03.398Z,16.5
2017-08-11T07:45:02.981Z,16.5
2017-08-11T07:46:01.822Z,16.5
2017-08-11T07:47:01.408Z,16.5
2017-08-11T07:48:00.615Z,16.5
2017-08-11T07:48:59.715Z,16.5
2017-08-11T07:49:59.417Z,16.5
2017-08-11T07:50:58.620Z,16.6
2017-08-11T07:51:57.581Z,16.6
2017-08-11T07:52:56.654Z,16.6
2017-08-11T07:53:55.874Z,16.5
2017-08-11T07:54:26.886Z,16.5
2017-08-11T07:54:57.395Z,16.5
2017-08-11T07:55:27.785Z,16.5
2017-08-11T07:56:54.155Z,16.5
2017-08-11T07:57:53.230Z,16.5
2017-08-11T07:58:52.433Z,16.5
2017-08-11T07:59:52.021Z,16.5
2017-08-11T08:00:51.218Z,16.5
2017-08-11T08:01:50.297Z,16.5
2017-08-11T08:02:49.370Z,16.5
2017-08-11T08:03:48.955Z,16.4
2017-08-11T08:04:47.917Z,16.4
2017-08-11T08:05:18.805Z,16.4
2017-08-11T08:06:46.702Z,16.5
2017-08-11T08:07:45.900Z,16.5
2017-08-11T08:08:45.118Z,16.5
2017-08-11T08:10:43.694Z,16.3
2017-08-11T08:11:42.894Z,16.4
2017-08-11T08:12:42.609Z,16.4
2017-08-11T08:13:41.675Z,16.4
2017-08-11T08:14:40.760Z,16.3
2017-08-11T08:15:39.725Z,16.4
2017-08-11T08:16:39.308Z,16.3
2017-08-11T08:17:38.878Z,16.3
2017-08-11T08:18:38.083Z,16.4
2017-08-11T08:19:37.284Z,16.4
2017-08-11T08:20:36.503Z,16.4
2017-08-11T08:21:35.459Z,16.4
2017-08-11T08:22:34.788Z,16.4
2017-08-11T08:23:34.477Z,16.4
2017-08-11T08:24:33.442Z,16.5
2017-08-11T08:25:33.174Z,16.4
2017-08-11T08:26:32.354Z,16.5
2017-08-11T08:27:31.419Z,16.4
2017-08-11T08:28:30.621Z,16.4
2017-08-11T08:29:29.803Z,16.4
2017-08-11T08:30:29.503Z,16.4
2017-08-11T08:31:00.005Z,16.4
2017-08-11T08:32:27.762Z,16.4
2017-08-11T08:33:26.960Z,16.5
2017-08-11T08:34:26.310Z,16.4
2017-08-11T08:35:25.394Z,16.4
2017-08-11T08:36:24.982Z,16.4
2017-08-11T08:37:24.052Z,16.5
2017-08-11T08:38:23.629Z,16.5
2017-08-11T08:39:22.589Z,16.5
2017-08-11T08:40:22.062Z,16.5
2017-08-11T08:41:21.261Z,16.5
2017-08-11T08:42:20.463Z,16.4
2017-08-11T08:43:19.419Z,16.4
2017-08-11T08:44:19.117Z,16.3
2017-08-11T08:45:18.314Z,16.3
2017-08-11T08:46:17.505Z,16.3
2017-08-11T08:47:16.691Z,16.3
2017-08-11T08:48:16.387Z,16.3
2017-08-11T08:49:15.338Z,16.3
2017-08-11T08:50:14.416Z,16.3
2017-08-11T08:51:13.986Z,16.4
2017-08-11T08:52:13.068Z,16.3
2017-08-11T08:53:12.543Z,16.5
2017-08-11T08:54:11.743Z,16.4
2017-08-11T08:55:10.821Z,16.5
2017-08-11T08:56:10.283Z,16.5
2017-08-11T08:57:09.490Z,16.5
2017-08-11T08:58:08.681Z,16.5
2017-08-11T08:59:08.262Z,16.5
2017-08-11T09:00:07.215Z,16.5
2017-08-11T09:00:37.728Z,16.5
2017-08-11T09:01:08.230Z,16.5
2017-08-11T09:01:38.500Z,16.5
2017-08-11T09:02:08.880Z,16.5
2017-08-11T09:02:39.274Z,16.5
2017-08-11T09:04:04.524Z,16.6
2017-08-11T09:05:03.723Z,16.6
2017-08-11T09:06:02.921Z,16.6
2017-08-11T09:07:02.503Z,16.6
2017-08-11T09:08:01.692Z,16.6
2017-08-11T09:09:00.766Z,16.6
2017-08-11T09:10:00.460Z,16.6
2017-08-11T09:10:59.537Z,16.6
2017-08-11T09:11:30.036Z,16.6
2017-08-11T09:12:00.428Z,16.6
2017-08-11T09:12:30.931Z,16.6
2017-08-11T09:13:56.937Z,16.6
2017-08-11T09:14:27.833Z,16.6
2017-08-11T09:14:58.345Z,16.6
2017-08-11T09:15:55.686Z,16.6
2017-08-11T09:16:55.271Z,16.6
2017-08-11T09:17:54.349Z,16.6
2017-08-11T09:18:53.937Z,16.6
2017-08-11T09:19:53.012Z,16.6
2017-08-11T09:20:52.219Z,16.6
2017-08-11T09:21:51.806Z,16.6
2017-08-11T09:22:51.006Z,16.6
2017-08-11T09:23:50.200Z,16.6
2017-08-11T09:24:20.577Z,16.6
2017-08-11T09:24:51.081Z,16.6
2017-08-11T09:25:21.593Z,16.6
2017-08-11T09:25:51.974Z,16.6
2017-08-11T09:26:48.152Z,16.6
2017-08-11T09:27:47.346Z,16.6
2017-08-11T09:28:46.539Z,16.6
2017-08-11T09:29:45.735Z,16.6
2017-08-11T09:30:45.313Z,16.6
2017-08-11T09:31:44.148Z,16.6
2017-08-11T09:32:43.742Z,16.6
2017-08-11T09:33:42.930Z,16.6
2017-08-11T09:34:42.111Z,16.6
2017-08-11T09:35:41.679Z,16.6
2017-08-11T09:36:40.868Z,16.6
2017-08-11T09:37:40.062Z,16.6
2017-08-11T09:38:39.281Z,16.6
2017-08-11T09:39:38.742Z,16.6
2017-08-11T09:40:37.959Z,16.6
2017-08-11T09:41:37.181Z,16.6
2017-08-11T09:42:07.573Z,16.6
2017-08-11T09:42:38.079Z,16.6
2017-08-11T09:43:08.584Z,16.6
2017-08-11T09:43:38.961Z,16.6
2017-08-11T09:44:09.120Z,16.6
2017-08-11T09:45:34.369Z,16.6
2017-08-11T09:46:33.441Z,16.6
2017-08-11T09:47:33.148Z,16.6
2017-08-11T09:48:32.112Z,16.6
2017-08-11T09:49:31.807Z,16.6
2017-08-11T09:50:30.649Z,16.6
2017-08-11T09:51:30.351Z,16.6
2017-08-11T09:52:29.423Z,16.6
2017-08-11T09:52:59.934Z,16.6
2017-08-11T09:53:30.213Z,16.6
2017-08-11T09:54:00.493Z,16.6
2017-08-11T09:55:27.139Z,16.5
2017-08-11T09:56:26.597Z,16.5
2017-08-11T09:58:25.178Z,16.6
2017-08-11T09:59:24.372Z,16.6
2017-08-11T10:00:23.853Z,16.6
2017-08-11T10:01:23.059Z,16.6
2017-08-11T10:02:22.128Z,16.6
2017-08-11T10:03:21.315Z,16.7
2017-08-11T10:04:21.017Z,16.7
2017-08-11T10:05:20.197Z,16.8
2017-08-11T10:06:19.388Z,16.8
2017-08-11T10:07:18.576Z,16.8
2017-08-11T10:08:17.777Z,16.8
2017-08-11T10:09:17.358Z,16.8
2017-08-11T10:10:16.548Z,16.8
2017-08-11T10:11:15.633Z,16.9
2017-08-11T10:12:15.219Z,17
2017-08-11T10:13:14.181Z,17
2017-08-11T10:14:13.643Z,16.9
2017-08-11T10:15:12.838Z,16.9
2017-08-11T10:16:12.532Z,17
2017-08-11T10:17:11.614Z,17
2017-08-11T10:18:10.457Z,17
2017-08-11T10:19:11.021Z,16.8
2017-08-11T10:20:09.603Z,16.7
2017-08-11T10:21:08.668Z,16.8
2017-08-11T10:22:08.123Z,16.8
2017-08-11T10:23:07.193Z,16.6
2017-08-11T10:24:06.774Z,16.6
2017-08-11T10:25:05.680Z,16.7
2017-08-11T10:26:05.261Z,16.7
2017-08-11T10:27:04.125Z,16.8
2017-08-11T10:28:03.825Z,16.8
2017-08-11T10:29:02.904Z,16.6
2017-08-11T10:30:02.478Z,16.7
2017-08-11T10:31:01.435Z,16.6
2017-08-11T10:32:00.900Z,16.7
2017-08-11T10:33:00.486Z,16.8
2017-08-11T10:33:59.675Z,16.8
2017-08-11T10:34:58.792Z,16.8
2017-08-11T10:35:57.986Z,16.8
2017-08-11T10:36:57.555Z,16.8
2017-08-11T10:37:56.650Z,16.8
2017-08-11T10:38:56.224Z,16.8
2017-08-11T10:39:55.295Z,16.9
2017-08-11T10:40:54.117Z,16.9
2017-08-11T10:41:53.555Z,16.9
2017-08-11T10:42:53.255Z,16.9
2017-08-11T10:43:52.323Z,16.9
2017-08-11T10:44:52.019Z,16.9
2017-08-11T10:45:51.011Z,16.9
2017-08-11T10:46:50.369Z,16.9
2017-08-11T10:47:49.447Z,16.8
2017-08-11T10:48:49.146Z,16.8
2017-08-11T10:49:19.652Z,16.8
2017-08-11T10:49:50.160Z,16.9
2017-08-11T10:50:20.428Z,16.9
2017-08-11T10:50:50.927Z,17
2017-08-11T10:51:21.430Z,17
2017-08-11T10:52:46.168Z,17
2017-08-11T10:53:45.403Z,17
2017-08-11T10:54:44.486Z,17
2017-08-11T10:55:44.191Z,17
2017-08-11T10:56:43.390Z,17
2017-08-11T10:57:42.455Z,17
2017-08-11T10:58:42.154Z,17
2017-08-11T10:59:41.338Z,17
2017-08-11T11:00:11.730Z,17
2017-08-11T11:00:41.885Z,17
2017-08-11T11:01:39.565Z,17
2017-08-11T11:02:09.952Z,17
2017-08-11T11:02:40.353Z,16.9
2017-08-11T11:03:38.442Z,17
2017-08-11T11:04:37.528Z,16.9
2017-08-11T11:05:37.218Z,17
2017-08-11T11:06:36.292Z,16.8
2017-08-11T11:07:35.360Z,16.8
2017-08-11T11:08:34.928Z,16.8
2017-08-11T11:09:34.389Z,16.8
2017-08-11T11:10:33.492Z,16.8
2017-08-11T11:11:32.676Z,16.8
2017-08-11T11:12:31.764Z,16.8
2017-08-11T11:13:31.463Z,16.8
2017-08-11T11:14:30.547Z,16.8
2017-08-11T11:15:30.127Z,16.8
2017-08-11T11:16:29.321Z,16.9
2017-08-11T11:17:28.551Z,16.9
2017-08-11T11:18:27.629Z,16.9
2017-08-11T11:18:58.019Z,16.9
2017-08-11T11:19:28.285Z,16.9
2017-08-11T11:19:58.946Z,16.9
2017-08-11T11:21:25.710Z,16.9
2017-08-11T11:22:24.890Z,16.8
2017-08-11T11:23:24.473Z,16.7
2017-08-11T11:24:23.535Z,16.7
2017-08-11T11:25:23.120Z,16.8
2017-08-11T11:26:22.076Z,16.8
2017-08-11T11:27:21.302Z,16.8
2017-08-11T11:28:20.877Z,16.8
2017-08-11T11:29:20.073Z,16.7
2017-08-11T11:30:19.255Z,16.7
2017-08-11T11:31:18.342Z,16.7
2017-08-11T11:32:18.038Z,16.8
2017-08-11T11:33:17.120Z,16.8
2017-08-11T11:34:16.699Z,16.8
2017-08-11T11:35:15.667Z,16.8
2017-08-11T11:36:15.250Z,16.8
2017-08-11T11:37:14.210Z,16.8
2017-08-11T11:38:13.918Z,16.8
2017-08-11T11:39:13.129Z,16.8
2017-08-11T11:40:12.326Z,16.7
2017-08-11T11:41:11.525Z,16.7
2017-08-11T11:41:41.793Z,16.7
2017-08-11T11:42:12.292Z,16.7
2017-08-11T11:42:42.441Z,16.7
2017-08-11T11:44:09.582Z,16.8
2017-08-11T11:45:08.665Z,16.8
2017-08-11T11:46:07.755Z,16.8
2017-08-11T11:47:07.231Z,16.8
2017-08-11T11:48:06.813Z,16.8
2017-08-11T11:49:05.887Z,16.7
2017-08-11T11:50:05.030Z,16.8
2017-08-11T11:51:04.760Z,16.7
2017-08-11T11:52:03.723Z,16.8
2017-08-11T11:53:02.920Z,16.8
2017-08-11T11:54:02.488Z,16.8
2017-08-11T11:55:01.566Z,16.8
2017-08-11T11:57:00.160Z,16.7
2017-08-11T11:57:59.861Z,16.6
2017-08-11T11:58:58.817Z,16.6
2017-08-11T11:59:58.424Z,16.6
2017-08-11T12:00:57.615Z,16.6
2017-08-11T12:01:56.580Z,16.6
2017-08-11T12:03:55.162Z,16.7
2017-08-11T12:04:54.757Z,16.7
2017-08-11T12:05:53.947Z,16.7
2017-08-11T12:06:53.144Z,16.7
2017-08-11T12:07:52.337Z,16.7
2017-08-11T12:08:52.036Z,16.7
2017-08-11T12:09:51.125Z,16.7
2017-08-11T12:10:50.320Z,16.7
2017-08-11T12:11:49.524Z,16.7
2017-08-11T12:12:20.017Z,16.7
2017-08-11T12:12:50.522Z,16.7
2017-08-11T12:13:21.029Z,16.7
2017-08-11T12:13:51.404Z,16.7
2017-08-11T12:14:47.848Z,16.8
2017-08-11T12:15:46.902Z,16.8
2017-08-11T12:16:45.978Z,16.8
2017-08-11T12:17:45.672Z,16.8
2017-08-11T12:18:44.627Z,16.8
2017-08-11T12:19:44.214Z,16.8
2017-08-11T12:20:43.192Z,16.8
2017-08-11T12:21:42.779Z,16.8
2017-08-11T12:22:41.847Z,16.8
2017-08-11T12:23:41.426Z,16.8
2017-08-11T12:24:40.613Z,16.7
2017-08-11T12:25:39.685Z,16.8
2017-08-11T12:26:39.389Z,16.7
2017-08-11T12:27:38.471Z,16.8
2017-08-11T12:29:36.588Z,16.8
2017-08-11T12:30:36.175Z,16.8
2017-08-11T12:31:35.916Z,16.8
2017-08-11T12:32:34.882Z,16.8
2017-08-11T12:33:34.077Z,16.6
2017-08-11T12:34:33.771Z,16.6
2017-08-11T12:35:32.838Z,16.5
2017-08-11T12:36:32.054Z,16.6
2017-08-11T12:37:31.260Z,16.7
2017-08-11T12:38:01.771Z,16.7
2017-08-11T12:39:30.149Z,16.6
2017-08-11T12:40:29.232Z,16.7
2017-08-11T12:41:28.431Z,16.7
2017-08-11T12:42:27.897Z,16.8
2017-08-11T12:43:26.987Z,16.6